sensor_id;sensor_type;location;lat;lon;timestamp;pressure;altitude;pressure_sealevel;temperature;humidity
27425;BME280;15244;49.088;11.886;2024-01-16T00:03:29;94825.97;;;0.86;54.87
27425;BME280;15244;49.088;11.886;2024-01-16T00:08:31;94810.56;;;0.83;55.38
27425;BME280;15244;49.088;11.886;2024-01-16T00:13:33;94822.44;;;0.82;54.98
27425;BME280;15244;49.088;11.886;2024-01-16T00:18:34;94812.03;;;0.80;55.07
27425;BME280;15244;49.088;11.886;2024-01-16T00:23:36;94831.94;;;0.79;55.08
27425;BME280;15244;49.088;11.886;2024-01-16T00:28:42;94821.66;;;0.81;54.51
27425;BME280;15244;49.088;11.886;2024-01-16T00:33:44;94837.50;;;0.86;54.73
27425;BME280;15244;49.088;11.886;2024-01-16T00:38:46;94855.22;;;0.75;54.59
27425;BME280;15244;49.088;11.886;2024-01-16T00:43:48;94859.34;;;0.73;54.57
27425;BME280;15244;49.088;11.886;2024-01-16T00:48:50;94858.66;;;0.76;54.89
27425;BME280;15244;49.088;11.886;2024-01-16T00:53:52;94859.03;;;0.74;54.50
27425;BME280;15244;49.088;11.886;2024-01-16T00:58:54;94874.69;;;0.72;54.32
27425;BME280;15244;49.088;11.886;2024-01-16T01:03:55;94885.84;;;0.74;55.07
27425;BME280;15244;49.088;11.886;2024-01-16T01:08:57;94893.69;;;0.67;54.94
27425;BME280;15244;49.088;11.886;2024-01-16T01:14:00;94895.25;;;0.68;54.61
27425;BME280;15244;49.088;11.886;2024-01-16T01:19:03;94914.38;;;0.67;54.71
27425;BME280;15244;49.088;11.886;2024-01-16T01:24:04;94912.56;;;0.71;54.31
27425;BME280;15244;49.088;11.886;2024-01-16T01:29:06;94926.19;;;0.78;54.47
27425;BME280;15244;49.088;11.886;2024-01-16T01:34:08;94936.47;;;0.76;54.62
27425;BME280;15244;49.088;11.886;2024-01-16T01:39:10;94943.22;;;0.70;54.59
27425;BME280;15244;49.088;11.886;2024-01-16T01:44:12;94945.00;;;0.65;54.64
27425;BME280;15244;49.088;11.886;2024-01-16T01:49:18;94960.44;;;0.69;54.42
27425;BME280;15244;49.088;11.886;2024-01-16T01:54:20;94965.56;;;0.74;54.30
27425;BME280;15244;49.088;11.886;2024-01-16T01:59:23;94956.72;;;0.73;54.54
27425;BME280;15244;49.088;11.886;2024-01-16T02:04:26;94957.28;;;0.79;54.81
27425;BME280;15244;49.088;11.886;2024-01-16T02:09:28;94962.66;;;0.79;54.68
27425;BME280;15244;49.088;11.886;2024-01-16T02:14:30;94970.56;;;0.75;54.43
27425;BME280;15244;49.088;11.886;2024-01-16T02:19:32;94960.63;;;0.76;54.75
27425;BME280;15244;49.088;11.886;2024-01-16T02:24:34;94969.13;;;0.78;54.27
27425;BME280;15244;49.088;11.886;2024-01-16T02:29:40;94974.03;;;0.76;54.70
27425;BME280;15244;49.088;11.886;2024-01-16T02:34:42;94956.72;;;0.73;54.11
27425;BME280;15244;49.088;11.886;2024-01-16T02:39:45;94967.91;;;0.75;54.45
27425;BME280;15244;49.088;11.886;2024-01-16T02:44:46;94963.53;;;0.71;54.08
27425;BME280;15244;49.088;11.886;2024-01-16T02:49:48;94971.59;;;0.71;54.61
27425;BME280;15244;49.088;11.886;2024-01-16T02:54:49;94967.25;;;0.66;54.59
27425;BME280;15244;49.088;11.886;2024-01-16T02:59:51;94974.19;;;0.67;54.97
27425;BME280;15244;49.088;11.886;2024-01-16T03:04:53;94981.53;;;0.70;53.97
27425;BME280;15244;49.088;11.886;2024-01-16T03:09:54;94986.59;;;0.72;54.50
27425;BME280;15244;49.088;11.886;2024-01-16T03:14:56;94987.03;;;0.74;54.10
27425;BME280;15244;49.088;11.886;2024-01-16T03:19:58;95005.81;;;0.74;54.31
27425;BME280;15244;49.088;11.886;2024-01-16T03:24:59;95006.00;;;0.81;54.29
27425;BME280;15244;49.088;11.886;2024-01-16T03:30:04;95007.22;;;0.83;54.07
27425;BME280;15244;49.088;11.886;2024-01-16T03:35:07;95020.41;;;0.89;53.73
27425;BME280;15244;49.088;11.886;2024-01-16T03:40:09;95029.34;;;0.93;53.99
27425;BME280;15244;49.088;11.886;2024-01-16T03:45:12;95034.03;;;0.96;53.87
27425;BME280;15244;49.088;11.886;2024-01-16T03:50:17;95038.16;;;1.05;53.94
27425;BME280;15244;49.088;11.886;2024-01-16T03:55:19;95053.19;;;1.06;53.25
27425;BME280;15244;49.088;11.886;2024-01-16T04:00:21;95048.91;;;1.05;54.00
27425;BME280;15244;49.088;11.886;2024-01-16T04:05:23;95052.81;;;1.08;53.48
27425;BME280;15244;49.088;11.886;2024-01-16T04:10:25;95055.25;;;1.13;53.71
27425;BME280;15244;49.088;11.886;2024-01-16T04:15:26;95058.72;;;1.14;53.45
27425;BME280;15244;49.088;11.886;2024-01-16T04:20:28;95048.09;;;1.17;53.24
27425;BME280;15244;49.088;11.886;2024-01-16T04:25:30;95050.03;;;1.17;53.24
27425;BME280;15244;49.088;11.886;2024-01-16T04:30:31;95052.25;;;1.15;53.40
27425;BME280;15244;49.088;11.886;2024-01-16T04:35:33;95055.72;;;1.15;53.30
27425;BME280;15244;49.088;11.886;2024-01-16T04:40:35;95040.38;;;1.16;53.38
27425;BME280;15244;49.088;11.886;2024-01-16T04:45:37;95042.97;;;1.12;53.39
27425;BME280;15244;49.088;11.886;2024-01-16T04:50:39;95045.34;;;1.01;53.34
27425;BME280;15244;49.088;11.886;2024-01-16T04:55:41;95026.00;;;0.96;52.96
27425;BME280;15244;49.088;11.886;2024-01-16T05:00:42;95032.81;;;0.93;53.13
27425;BME280;15244;49.088;11.886;2024-01-16T05:05:44;95053.06;;;0.91;53.36
27425;BME280;15244;49.088;11.886;2024-01-16T05:10:46;95059.34;;;0.82;53.32
27425;BME280;15244;49.088;11.886;2024-01-16T05:15:47;95060.47;;;0.81;52.92
27425;BME280;15244;49.088;11.886;2024-01-16T05:20:49;95055.19;;;0.85;53.57
27425;BME280;15244;49.088;11.886;2024-01-16T05:25:50;95071.31;;;0.85;52.77
27425;BME280;15244;49.088;11.886;2024-01-16T05:30:52;95072.44;;;0.84;53.07
27425;BME280;15244;49.088;11.886;2024-01-16T05:35:54;95080.13;;;0.85;53.37
27425;BME280;15244;49.088;11.886;2024-01-16T05:40:55;95086.19;;;0.82;52.78
27425;BME280;15244;49.088;11.886;2024-01-16T05:45:57;95087.53;;;0.76;53.24
27425;BME280;15244;49.088;11.886;2024-01-16T05:51:00;95083.16;;;0.72;53.20
27425;BME280;15244;49.088;11.886;2024-01-16T05:56:02;95091.53;;;0.70;52.90
27425;BME280;15244;49.088;11.886;2024-01-16T06:01:04;95091.91;;;0.69;53.32
27425;BME280;15244;49.088;11.886;2024-01-16T06:06:06;95100.28;;;0.67;53.05
27425;BME280;15244;49.088;11.886;2024-01-16T06:11:08;95105.53;;;0.63;52.86
27425;BME280;15244;49.088;11.886;2024-01-16T06:16:15;95098.03;;;0.57;52.74
27425;BME280;15244;49.088;11.886;2024-01-16T06:21:16;95111.66;;;0.52;53.32
27425;BME280;15244;49.088;11.886;2024-01-16T06:26:22;95111.09;;;0.46;52.83
27425;BME280;15244;49.088;11.886;2024-01-16T06:31:23;95113.44;;;0.48;52.70
27425;BME280;15244;49.088;11.886;2024-01-16T06:36:27;95113.09;;;0.49;52.87
27425;BME280;15244;49.088;11.886;2024-01-16T06:41:29;95116.56;;;0.50;52.97
27425;BME280;15244;49.088;11.886;2024-01-16T06:46:30;95110.75;;;0.48;52.89
27425;BME280;15244;49.088;11.886;2024-01-16T06:51:32;95112.19;;;0.45;53.01
27425;BME280;15244;49.088;11.886;2024-01-16T06:56:34;95120.69;;;0.47;52.36
27425;BME280;15244;49.088;11.886;2024-01-16T07:01:35;95125.75;;;0.49;52.62
27425;BME280;15244;49.088;11.886;2024-01-16T07:06:37;95121.16;;;0.49;52.79
27425;BME280;15244;49.088;11.886;2024-01-16T07:11:39;95121.59;;;0.51;52.69
27425;BME280;15244;49.088;11.886;2024-01-16T07:16:44;95120.47;;;0.52;52.61
27425;BME280;15244;49.088;11.886;2024-01-16T07:21:45;95108.41;;;0.46;52.28
27425;BME280;15244;49.088;11.886;2024-01-16T07:26:47;95105.84;;;0.50;52.30
27425;BME280;15244;49.088;11.886;2024-01-16T07:31:49;95107.84;;;0.53;52.12
27425;BME280;15244;49.088;11.886;2024-01-16T07:36:51;95104.75;;;0.51;52.15
27425;BME280;15244;49.088;11.886;2024-01-16T07:41:52;95102.06;;;0.51;52.26
27425;BME280;15244;49.088;11.886;2024-01-16T07:46:54;95102.63;;;0.56;52.25
27425;BME280;15244;49.088;11.886;2024-01-16T07:51:56;95108.00;;;0.69;51.66
27425;BME280;15244;49.088;11.886;2024-01-16T07:56:58;95116.13;;;0.72;51.27
27425;BME280;15244;49.088;11.886;2024-01-16T08:02:00;95104.28;;;0.73;51.04
27425;BME280;15244;49.088;11.886;2024-01-16T08:07:02;95118.50;;;0.74;51.41
27425;BME280;15244;49.088;11.886;2024-01-16T08:12:04;95124.41;;;0.67;50.91
27425;BME280;15244;49.088;11.886;2024-01-16T08:17:07;95121.63;;;0.63;51.47
27425;BME280;15244;49.088;11.886;2024-01-16T08:22:10;95136.28;;;0.66;51.54
27425;BME280;15244;49.088;11.886;2024-01-16T08:27:20;95130.00;;;0.62;51.18
27425;BME280;15244;49.088;11.886;2024-01-16T08:32:22;95120.41;;;0.61;51.38
27425;BME280;15244;49.088;11.886;2024-01-16T08:37:24;95130.31;;;0.60;51.23
27425;BME280;15244;49.088;11.886;2024-01-16T08:42:27;95130.66;;;0.59;51.02
27425;BME280;15244;49.088;11.886;2024-01-16T08:47:28;95137.06;;;0.67;51.47
27425;BME280;15244;49.088;11.886;2024-01-16T08:52:30;95128.44;;;0.73;51.54
27425;BME280;15244;49.088;11.886;2024-01-16T08:57:32;95130.56;;;0.80;50.84
27425;BME280;15244;49.088;11.886;2024-01-16T09:02:33;95133.34;;;0.83;51.03
27425;BME280;15244;49.088;11.886;2024-01-16T09:07:35;95131.47;;;0.84;50.88
27425;BME280;15244;49.088;11.886;2024-01-16T09:12:37;95122.84;;;0.91;50.89
27425;BME280;15244;49.088;11.886;2024-01-16T09:17:38;95126.53;;;0.98;51.12
27425;BME280;15244;49.088;11.886;2024-01-16T09:22:40;95122.28;;;0.97;51.11
27425;BME280;15244;49.088;11.886;2024-01-16T09:27:42;95123.84;;;0.98;50.53
27425;BME280;15244;49.088;11.886;2024-01-16T09:32:44;95119.38;;;1.02;50.79
27425;BME280;15244;49.088;11.886;2024-01-16T09:37:47;95119.94;;;1.08;50.58
27425;BME280;15244;49.088;11.886;2024-01-16T09:42:50;95121.06;;;1.07;50.51
27425;BME280;15244;49.088;11.886;2024-01-16T09:47:52;95123.06;;;1.10;50.46
27425;BME280;15244;49.088;11.886;2024-01-16T09:52:55;95121.50;;;1.09;50.76
27425;BME280;15244;49.088;11.886;2024-01-16T09:58:00;95124.28;;;1.13;50.99
27425;BME280;15244;49.088;11.886;2024-01-16T10:03:05;95102.69;;;1.21;51.03
27425;BME280;15244;49.088;11.886;2024-01-16T10:08:07;95110.72;;;1.34;50.52
27425;BME280;15244;49.088;11.886;2024-01-16T10:13:09;95104.44;;;1.42;50.60
27425;BME280;15244;49.088;11.886;2024-01-16T10:18:28;95099.72;;;1.51;50.70
27425;BME280;15244;49.088;11.886;2024-01-16T10:23:32;95100.25;;;1.57;50.87
27425;BME280;15244;49.088;11.886;2024-01-16T10:28:39;95106.28;;;1.66;50.43
27425;BME280;15244;49.088;11.886;2024-01-16T10:33:41;95108.53;;;1.64;50.21
27425;BME280;15244;49.088;11.886;2024-01-16T10:38:45;95118.81;;;1.62;50.20
27425;BME280;15244;49.088;11.886;2024-01-16T10:43:47;95112.88;;;1.68;49.74
27425;BME280;15244;49.088;11.886;2024-01-16T10:49:04;95125.88;;;1.66;49.81
27425;BME280;15244;49.088;11.886;2024-01-16T10:54:12;95133.16;;;1.66;49.64
27425;BME280;15244;49.088;11.886;2024-01-16T10:59:18;95128.84;;;1.77;49.56
27425;BME280;15244;49.088;11.886;2024-01-16T11:04:23;95121.75;;;1.85;49.74
27425;BME280;15244;49.088;11.886;2024-01-16T11:09:25;95129.13;;;2.00;49.66
27425;BME280;15244;49.088;11.886;2024-01-16T11:14:28;95115.34;;;2.17;49.25
27425;BME280;15244;49.088;11.886;2024-01-16T11:19:32;95122.66;;;2.33;49.21
27425;BME280;15244;49.088;11.886;2024-01-16T11:25:15;95113.31;;;2.43;49.04
27425;BME280;15244;49.088;11.886;2024-01-16T11:30:29;95114.25;;;2.50;49.10
27425;BME280;15244;49.088;11.886;2024-01-16T11:35:36;95109.84;;;2.58;48.61
27425;BME280;15244;49.088;11.886;2024-01-16T11:40:38;95094.66;;;2.66;48.38
27425;BME280;15244;49.088;11.886;2024-01-16T11:50:42;95088.41;;;2.77;48.44
27425;BME280;15244;49.088;11.886;2024-01-16T12:01:12;95067.53;;;2.90;48.55
27425;BME280;15244;49.088;11.886;2024-01-16T12:06:16;95051.72;;;3.04;48.01
27425;BME280;15244;49.088;11.886;2024-01-16T12:11:19;95057.34;;;3.15;48.34
27425;BME280;15244;49.088;11.886;2024-01-16T12:16:25;95057.84;;;3.21;47.71
27425;BME280;15244;49.088;11.886;2024-01-16T12:21:28;95057.75;;;3.17;46.94
27425;BME280;15244;49.088;11.886;2024-01-16T12:26:31;95062.09;;;3.22;46.91
27425;BME280;15244;49.088;11.886;2024-01-16T12:31:35;95055.63;;;3.26;46.74
27425;BME280;15244;49.088;11.886;2024-01-16T12:36:37;95053.47;;;3.32;46.59
27425;BME280;15244;49.088;11.886;2024-01-16T12:41:44;95030.91;;;3.40;46.55
27425;BME280;15244;49.088;11.886;2024-01-16T12:46:57;95024.09;;;3.46;46.41
27425;BME280;15244;49.088;11.886;2024-01-16T12:52:20;95006.09;;;3.51;46.10
27425;BME280;15244;49.088;11.886;2024-01-16T12:57:23;95001.56;;;3.55;46.21
27425;BME280;15244;49.088;11.886;2024-01-16T13:02:25;94989.69;;;3.59;46.12
27425;BME280;15244;49.088;11.886;2024-01-16T13:07:28;94985.16;;;3.63;45.45
27425;BME280;15244;49.088;11.886;2024-01-16T13:12:32;94976.44;;;3.70;45.96
27425;BME280;15244;49.088;11.886;2024-01-16T13:17:35;94981.84;;;3.70;45.37
27425;BME280;15244;49.088;11.886;2024-01-16T13:22:38;94974.44;;;3.67;45.37
27425;BME280;15244;49.088;11.886;2024-01-16T13:27:48;94970.53;;;3.64;45.27
27425;BME280;15244;49.088;11.886;2024-01-16T13:32:50;94965.53;;;3.63;45.27
27425;BME280;15244;49.088;11.886;2024-01-16T13:37:53;94969.41;;;3.65;45.09
27425;BME280;15244;49.088;11.886;2024-01-16T13:42:55;94973.75;;;3.70;45.03
27425;BME280;15244;49.088;11.886;2024-01-16T13:47:57;94961.03;;;3.71;45.33
27425;BME280;15244;49.088;11.886;2024-01-16T13:53:00;94958.34;;;3.71;44.85
27425;BME280;15244;49.088;11.886;2024-01-16T13:58:02;94968.34;;;3.70;45.06
27425;BME280;15244;49.088;11.886;2024-01-16T14:03:04;94963.31;;;3.68;44.71
27425;BME280;15244;49.088;11.886;2024-01-16T14:08:08;94960.56;;;3.65;44.70
27425;BME280;15244;49.088;11.886;2024-01-16T14:13:13;94958.56;;;3.62;44.94
27425;BME280;15244;49.088;11.886;2024-01-16T14:18:15;94955.09;;;3.61;44.81
27425;BME280;15244;49.088;11.886;2024-01-16T14:23:17;94953.09;;;3.58;45.07
27425;BME280;15244;49.088;11.886;2024-01-16T14:28:22;94942.31;;;3.58;44.90
27425;BME280;15244;49.088;11.886;2024-01-16T14:33:30;94939.97;;;3.57;44.70
27425;BME280;15244;49.088;11.886;2024-01-16T14:38:32;94957.25;;;3.52;44.50
27425;BME280;15244;49.088;11.886;2024-01-16T14:43:34;94952.16;;;3.47;44.85
27425;BME280;15244;49.088;11.886;2024-01-16T14:48:46;94947.03;;;3.42;44.84
27425;BME280;15244;49.088;11.886;2024-01-16T14:53:47;94952.34;;;3.38;44.87
27425;BME280;15244;49.088;11.886;2024-01-16T14:58:50;94952.63;;;3.33;44.74
27425;BME280;15244;49.088;11.886;2024-01-16T15:03:53;94942.16;;;3.28;45.08
27425;BME280;15244;49.088;11.886;2024-01-16T15:08:56;94950.16;;;3.24;44.92
27425;BME280;15244;49.088;11.886;2024-01-16T15:13:59;94944.69;;;3.21;44.82
27425;BME280;15244;49.088;11.886;2024-01-16T15:19:02;94936.13;;;3.15;44.90
27425;BME280;15244;49.088;11.886;2024-01-16T15:24:05;94929.47;;;3.09;45.07
27425;BME280;15244;49.088;11.886;2024-01-16T15:29:07;94926.69;;;3.06;45.00
27425;BME280;15244;49.088;11.886;2024-01-16T15:34:12;94928.91;;;3.00;45.30
27425;BME280;15244;49.088;11.886;2024-01-16T15:39:20;94924.56;;;2.95;45.25
27425;BME280;15244;49.088;11.886;2024-01-16T15:44:23;94921.44;;;2.93;45.30
27425;BME280;15244;49.088;11.886;2024-01-16T15:49:26;94931.81;;;2.91;45.03
27425;BME280;15244;49.088;11.886;2024-01-16T15:54:28;94925.91;;;2.86;45.39
27425;BME280;15244;49.088;11.886;2024-01-16T15:59:32;94939.31;;;2.82;45.02
27425;BME280;15244;49.088;11.886;2024-01-16T16:04:35;94961.94;;;2.81;45.14
27425;BME280;15244;49.088;11.886;2024-01-16T16:09:37;94946.16;;;2.79;45.09
27425;BME280;15244;49.088;11.886;2024-01-16T16:14:40;94950.34;;;2.77;45.35
27425;BME280;15244;49.088;11.886;2024-01-16T16:19:43;94946.44;;;2.74;45.36
27425;BME280;15244;49.088;11.886;2024-01-16T16:24:47;94951.41;;;2.72;45.42
27425;BME280;15244;49.088;11.886;2024-01-16T16:29:49;94949.75;;;2.68;45.92
27425;BME280;15244;49.088;11.886;2024-01-16T16:34:51;94943.53;;;2.64;45.78
27425;BME280;15244;49.088;11.886;2024-01-16T16:39:53;94950.41;;;2.61;46.11
27425;BME280;15244;49.088;11.886;2024-01-16T16:44:56;94953.09;;;2.61;45.81
27425;BME280;15244;49.088;11.886;2024-01-16T16:50:01;94946.06;;;2.56;46.31
27425;BME280;15244;49.088;11.886;2024-01-16T16:55:03;94954.84;;;2.53;46.00
27425;BME280;15244;49.088;11.886;2024-01-16T17:00:06;94950.50;;;2.49;45.90
27425;BME280;15244;49.088;11.886;2024-01-16T17:05:09;94955.78;;;2.45;46.14
27425;BME280;15244;49.088;11.886;2024-01-16T17:10:11;94967.63;;;2.41;45.81
27425;BME280;15244;49.088;11.886;2024-01-16T17:15:13;94969.06;;;2.38;46.00
27425;BME280;15244;49.088;11.886;2024-01-16T17:20:15;94969.78;;;2.35;46.13
27425;BME280;15244;49.088;11.886;2024-01-16T17:25:17;94970.91;;;2.34;46.21
27425;BME280;15244;49.088;11.886;2024-01-16T17:30:18;94960.94;;;2.34;46.50
27425;BME280;15244;49.088;11.886;2024-01-16T17:35:21;94963.19;;;2.32;46.15
27425;BME280;15244;49.088;11.886;2024-01-16T17:40:25;94981.22;;;2.32;46.19
27425;BME280;15244;49.088;11.886;2024-01-16T17:45:26;94967.00;;;2.31;46.62
27425;BME280;15244;49.088;11.886;2024-01-16T17:50:28;94970.03;;;2.30;46.22
27425;BME280;15244;49.088;11.886;2024-01-16T17:55:30;94968.50;;;2.29;46.38
27425;BME280;15244;49.088;11.886;2024-01-16T18:00:34;94967.72;;;2.28;46.69
27425;BME280;15244;49.088;11.886;2024-01-16T18:05:36;94968.38;;;2.25;46.27
27425;BME280;15244;49.088;11.886;2024-01-16T18:10:39;94951.75;;;2.20;46.73
27425;BME280;15244;49.088;11.886;2024-01-16T18:15:41;94946.28;;;2.16;46.65
27425;BME280;15244;49.088;11.886;2024-01-16T18:20:43;94946.56;;;2.11;46.52
27425;BME280;15244;49.088;11.886;2024-01-16T18:25:45;94950.72;;;2.08;46.80
27425;BME280;15244;49.088;11.886;2024-01-16T18:30:49;94940.22;;;2.03;46.53
27425;BME280;15244;49.088;11.886;2024-01-16T18:35:53;94938.22;;;2.00;46.72
27425;BME280;15244;49.088;11.886;2024-01-16T18:41:00;94943.88;;;1.95;47.09
27425;BME280;15244;49.088;11.886;2024-01-16T18:46:02;94942.66;;;1.92;46.92
27425;BME280;15244;49.088;11.886;2024-01-16T18:51:05;94934.81;;;1.87;47.06
27425;BME280;15244;49.088;11.886;2024-01-16T18:56:07;94943.50;;;1.81;47.23
27425;BME280;15244;49.088;11.886;2024-01-16T19:01:09;94935.25;;;1.73;46.83
27425;BME280;15244;49.088;11.886;2024-01-16T19:06:12;94922.09;;;1.68;47.20
27425;BME280;15244;49.088;11.886;2024-01-16T19:11:15;94914.28;;;1.63;47.18
27425;BME280;15244;49.088;11.886;2024-01-16T19:16:17;94912.88;;;1.54;46.48
27425;BME280;15244;49.088;11.886;2024-01-16T19:21:20;94909.22;;;1.46;47.04
27425;BME280;15244;49.088;11.886;2024-01-16T19:26:21;94894.06;;;1.38;46.92
27425;BME280;15244;49.088;11.886;2024-01-16T19:31:23;94893.88;;;1.30;46.87
27425;BME280;15244;49.088;11.886;2024-01-16T19:36:25;94894.81;;;1.22;46.18
27425;BME280;15244;49.088;11.886;2024-01-16T19:41:31;94888.81;;;1.13;46.56
27425;BME280;15244;49.088;11.886;2024-01-16T19:46:33;94881.38;;;1.06;46.46
27425;BME280;15244;49.088;11.886;2024-01-16T19:51:37;94872.69;;;0.97;46.33
